Wetterstation-Oberesslingen
Wetterdaten: aktuell Dienstag, 20.11.2018 18:30
Datum Zeit Temperatur Temp+5cm Luftfeuchte Luftdruck Regen Wind Richtung Richtung Sonnenschein Zeit Regen ET Solar Taupunkt Windchill Windben
20.11.2018 18:30 -0,4 C -2,8 C 84 % 1008,8 hPa 0,0 l/m 2,2 km/h (1 Bft) O-SO 111 0 min 0 min 0,000 mm 0 W/m -2,8 C -0,4 C 4,3 km/h (1 Bft)
20.11.2018 17:30 2,3 C 0,0 C 73 % 1007,8 hPa 0,0 l/m 1,1 km/h (1 Bft) O-SO 111 0 min 0 min 0,001 mm 0 W/m -2,0 C 2,3 C 1,1 km/h (1 Bft)
20.11.2018 16:30 4,3 C 4,4 C 67 % 1007,3 hPa 0,0 l/m 7,5 km/h (2 Bft) O 92 3 min 0 min 0,025 mm 7 W/m -1,3 C 3,3 C 14,0 km/h (3 Bft)
20.11.2018 15:30 4,7 C 5,6 C 69 % 1007,2 hPa 0,0 l/m 4,9 km/h (1 Bft) SO 124 0 min 0 min 0,051 mm 28 W/m -0,5 C 4,7 C 14,0 km/h (3 Bft)
20.11.2018 14:30 4,8 C 6,1 C 68 % 1006,4 hPa 0,0 l/m 5,2 km/h (1 Bft) O 93 0 min 0 min 0,051 mm 88 W/m -0,6 C 4,8 C 9,2 km/h (2 Bft)
20.11.2018 13:30 4,7 C 6,1 C 69 % 1006,5 hPa 0,0 l/m 6,1 km/h (2 Bft) O 89 0 min 0 min 0,050 mm 74 W/m -0,5 C 4,7 C 10,8 km/h (2 Bft)
20.11.2018 12:30 4,4 C 5,6 C 68 % 1006,4 hPa 0,0 l/m 6,2 km/h (2 Bft) O-SO 103 0 min 0 min 0,051 mm 83 W/m -1,0 C 4,4 C 12,4 km/h (2 Bft)
20.11.2018 11:30 3,8 C 5,0 C 70 % 1006,6 hPa 0,0 l/m 6,3 km/h (2 Bft) SO 126 0 min 0 min 0,051 mm 91 W/m -1,2 C 3,8 C 12,4 km/h (2 Bft)
20.11.2018 10:30 3,3 C 4,4 C 71 % 1006,6 hPa 0,0 l/m 10,7 km/h (2 Bft) O-NO 72 0 min 0 min 0,025 mm 113 W/m -1,4 C -0,3 C 15,6 km/h (3 Bft)
20.11.2018 09:30 2,4 C 3,3 C 74 % 1006,6 hPa 0,0 l/m 4,6 km/h (1 Bft) O 86 0 min 0 min 0,026 mm 49 W/m -1,7 C 2,4 C 9,2 km/h (2 Bft)
20.11.2018 08:30 1,9 C 2,2 C 75 % 1006,9 hPa 0,0 l/m 5,1 km/h (1 Bft) O 82 0 min 0 min 0,025 mm 9 W/m -2,1 C 1,9 C 9,2 km/h (2 Bft)
20.11.2018 07:30 1,7 C 1,7 C 74 % 1006,7 hPa 0,0 l/m 4,9 km/h (1 Bft) O 87 0 min 0 min 0,026 mm 0 W/m -2,4 C 1,7 C 10,8 km/h (2 Bft)
20.11.2018 06:30 1,4 C 1,7 C 74 % 1006,6 hPa 0,0 l/m 6,7 km/h (2 Bft) O 96 0 min 0 min 0,025 mm 0 W/m -2,7 C 1,1 C 14,0 km/h (3 Bft)
20.11.2018 05:27 1,4 C 1,7 C 73 % 1006,8 hPa 0,0 l/m 7,1 km/h (2 Bft) O 81 0 min 0 min 0,025 mm 0 W/m -2,9 C 0,7 C 12,4 km/h (2 Bft)
20.11.2018 04:27 1,4 C 1,7 C 73 % 1007,0 hPa 0,0 l/m 8,7 km/h (2 Bft) SO 146 0 min 0 min 0,026 mm 0 W/m -2,9 C -0,8 C 12,4 km/h (2 Bft)
20.11.2018 03:27 1,6 C 1,7 C 72 % 1007,2 hPa 0,0 l/m 9,7 km/h (2 Bft) SO 125 0 min 0 min 0,025 mm 0 W/m -2,9 C -1,4 C 14,0 km/h (3 Bft)
20.11.2018 02:27 1,7 C 2,2 C 71 % 1007,8 hPa 0,0 l/m 11,1 km/h (2 Bft) O 82 0 min 0 min 0,001 mm 0 W/m -3,0 C -2,4 C 22,1 km/h (4 Bft)
20.11.2018 01:27 1,9 C 2,2 C 70 % 1008,1 hPa 0,0 l/m 9,5 km/h (2 Bft) O-SO 102 0 min 0 min 0,025 mm 0 W/m -3,0 C -1,0 C 23,7 km/h (4 Bft)
20.11.2018 00:27 2,2 C 2,2 C 70 % 1008,7 hPa 0,0 l/m 12,6 km/h (3 Bft) O 80 0 min 0 min 0,000 mm 0 W/m -2,7 C -2,9 C 18,8 km/h (3 Bft)
19.11.2018 23:27 2,3 C 2,8 C 69 % 1008,9 hPa 0,0 l/m 12,9 km/h (3 Bft) O 85 0 min 0 min 0,026 mm 0 W/m -2,8 C -2,9 C 23,7 km/h (4 Bft)
19.11.2018 22:27 2,5 C 2,8 C 69 % 1009,0 hPa 0,0 l/m 7,3 km/h (2 Bft) O 86 0 min 0 min 0,025 mm 0 W/m -2,6 C 1,6 C 14,0 km/h (3 Bft)
19.11.2018 21:27 2,7 C 2,8 C 68 % 1009,3 hPa 0,0 l/m 8,8 km/h (2 Bft) O 95 0 min 0 min 0,001 mm 0 W/m -2,6 C 0,5 C 17,2 km/h (3 Bft)
19.11.2018 20:27 2,8 C 3,3 C 67 % 1009,4 hPa 0,0 l/m 10,6 km/h (2 Bft) O-SO 115 0 min 0 min 0,025 mm 0 W/m -2,7 C -0,8 C 22,1 km/h (4 Bft)
19.11.2018 19:27 2,9 C 3,3 C 67 % 1009,7 hPa 0,0 l/m 15,2 km/h (3 Bft) O-NO 61 0 min 0 min 0,025 mm 0 W/m -2,6 C -3,6 C 26,9 km/h (4 Bft)
19.11.2018 19:00 2,7 C 2,8 C 68 % 1009,8 hPa 0,0 l/m 13,7 km/h (3 Bft) O-SO 108 0 min 0 min 0,000 mm 0 W/m -2,6 C -3,0 C 22,1 km/h (4 Bft)
_ Min-Zeit 18:30 18:27 15:42 11:54 - 17:30 - - - - - - 03:51 23:09 17:30
Minimum _ -0,4 C -2,8 C 66 % 1006,1 hPa - 1,1 km/h (1 Bft) - - - - - - -3,1 C -5,9 C 1,1 km/h (1 Bft)
_ Max-Zeit 14:18 11:42 18:27 19:06 19:00 23:09 - - 16:24 19:00 11:03 10:36 15:06 14:18 23:06
Maximum _ 4,9 C 6,1 C 84 % 1009,9 hPa 0,0 l/m 18,5 km/h
O-NO (3 Bft)
- - 3 min 0 min 0,051 mm 134 W/m -0,3 C 4,9 C 31,7 km/h
O (5 Bft)
Durchschnitt _ 2,7 C 3,0 C 71 % 1007,7 hPa #0,0 l/m 7,7 km/h (2 Bft) O - #3 min. #0 min. #0,559 mm 61 W/m -2,1 C 1,0 C 14,1 km/h (3 Bft)